| Date | Time | Temp. (oF) | Dew Point (oF) | Rel. Hum. (%) | Press. (in.) | Wind Dir. | Wind Speed (mph) | Hourly Rainfall (in.) |
|
|---|---|---|---|---|---|---|---|---|---|
| 1 | 04/23 | 00:00 | 44 | 31 | 61 | 30.01 | WNW | 10 | 0.00 |
| 2 | 04/22 | 23:00 | 46 | 33 | 61 | 29.99 | WSW | 16 | 0.00 |
| 3 | 04/22 | 22:00 | 47 | 33 | 60 | 29.96 | NW | 11 | 0.00 |
| 4 | 04/22 | 21:00 | 49 | 36 | 63 | 29.93 | WNW | 9 | 0.00 |
| 5 | 04/22 | 20:00 | 50 | 36 | 60 | 29.89 | WNW | 5 | 0.00 |
| 6 | 04/22 | 19:00 | 53 | 37 | 55 | 29.85 | WNW | 7 | 0.00 |
| 7 | 04/22 | 18:00 | 55 | 38 | 53 | 29.82 | WNW | 9 | 0.00 |
| 8 | 04/22 | 17:00 | 56 | 40 | 57 | 29.78 | W | 7 | 0.00 |
| 9 | 04/22 | 16:00 | 55 | 46 | 74 | 29.76 | WNW | 7 | 0.00 |
| 10 | 04/22 | 15:00 | 59 | 50 | 74 | 29.75 | W | 3 | 0.00 |
| 11 | 04/22 | 14:00 | 57 | 51 | 81 | 29.76 | W | 11 | 0.00 |
| 12 | 04/22 | 13:00 | 53 | 51 | 96 | 29.77 | NW | 9 | 0.00 |
| 13 | 04/22 | 12:00 | 49 | 49 | 100 | 29.78 | WNW | 3 | 0.00 |
| 14 | 04/22 | 11:00 | 47 | 46 | 100 | 29.80 | SSW | 1 | 0.00 |
| 15 | 04/22 | 10:00 | 46 | 45 | 100 | 29.80 | SSW | 0 | 0.00 |
| 16 | 04/22 | 09:00 | 45 | 45 | 100 | 29.79 | E | 3 | 0.00 |
| 17 | 04/22 | 08:00 | 44 | 44 | 100 | 29.80 | SE | 4 | 0.01 |
| 18 | 04/22 | 07:00 | 43 | 42 | 100 | 29.82 | E | 1 | 0.01 |
| 19 | 04/22 | 06:00 | 43 | 42 | 100 | 29.81 | ESE | 4 | 0.00 |
| 20 | 04/22 | 05:00 | 42 | 41 | 100 | 29.83 | ESE | 3 | 0.01 |
| 21 | 04/22 | 04:00 | 41 | 41 | 100 | 29.88 | NNE | 1 | 0.00 |
| 22 | 04/22 | 03:00 | 41 | 41 | 100 | 29.89 | NE | 2 | 0.00 |
| 23 | 04/22 | 02:00 | 41 | 40 | 99 | 29.93 | ENE | 3 | 0.06 |
| 24 | 04/22 | 01:00 | 42 | 39 | 92 | 29.98 | NNE | 3 | 0.06 |